createdAt,value
2022-08-09T00:00:59.265Z,263.10
2022-08-09T00:04:05.643Z,260.03
2022-08-09T00:06:23.029Z,265.87
2022-08-09T00:08:52.375Z,255.13
2022-08-09T00:12:04.058Z,262.07
2022-08-09T00:14:27.978Z,258.53
2022-08-09T00:17:06.149Z,263.67
2022-08-09T00:19:34.778Z,241.40
2022-08-09T00:22:03.420Z,240.83
2022-08-09T00:24:32.909Z,233.13
2022-08-09T00:27:03.847Z,222.73
2022-08-09T00:30:16.226Z,201.43
2022-08-09T00:32:27.228Z,202.23
2022-08-09T00:35:04.747Z,202.27
2022-08-09T00:37:34.086Z,198.90
2022-08-09T00:40:13.195Z,199.07
2022-08-09T00:44:10.786Z,204.73
2022-08-09T00:45:37.516Z,202.77
2022-08-09T00:48:15.421Z,211.63
2022-08-09T00:50:47.747Z,201.43
2022-08-09T00:53:23.936Z,204.57
2022-08-09T00:56:04.881Z,200.40
2022-08-09T00:58:39.069Z,196.17
2022-08-09T01:01:15.922Z,197.53
2022-08-09T01:03:56.812Z,197.87
2022-08-09T01:06:53.376Z,128.97
2022-08-09T01:09:26.364Z,129.37
2022-08-09T01:12:12.823Z,128.43
2022-08-09T01:14:52.439Z,132.27
2022-08-09T01:17:26.239Z,134.63
2022-08-09T01:20:02.696Z,131.37
2022-08-09T01:22:48.290Z,132.07
2022-08-09T01:25:28.118Z,132.80
2022-08-09T01:27:58.031Z,132.47
2022-08-09T01:30:28.766Z,130.40
2022-08-09T01:33:04.848Z,131.80
2022-08-09T01:35:39.434Z,129.93
2022-08-09T01:38:15.791Z,131.70
2022-08-09T01:40:52.443Z,132.83
2022-08-09T01:43:51.111Z,130.20
2022-08-09T01:46:24.811Z,134.60
2022-08-09T01:48:59.992Z,130.97
2022-08-09T01:51:39.058Z,133.37
2022-08-09T01:54:11.692Z,130.60
2022-08-09T01:56:42.569Z,133.33
2022-08-09T01:59:19.679Z,133.03
2022-08-09T02:01:59.598Z,134.17
2022-08-09T02:04:29.917Z,132.93
2022-08-09T02:07:17.932Z,131.60
2022-08-09T02:10:01.137Z,132.50
2022-08-09T02:12:34.174Z,133.27
2022-08-09T02:15:06.438Z,131.23
2022-08-09T02:18:01.445Z,134.30
2022-08-09T02:20:33.933Z,132.23
2022-08-09T02:23:07.328Z,132.83
2022-08-09T02:25:41.879Z,133.17
2022-08-09T02:28:17.798Z,132.80
2022-08-09T02:30:51.771Z,133.50
2022-08-09T02:33:22.967Z,133.73
2022-08-09T02:36:02.875Z,133.27
2022-08-09T02:38:34.878Z,138.33
2022-08-09T02:41:08.932Z,139.43
2022-08-09T02:43:53.719Z,137.37
2022-08-09T02:46:27.713Z,141.00
2022-08-09T02:48:59.772Z,133.30
2022-08-09T02:51:37.160Z,135.27
2022-08-09T02:54:10.271Z,136.90
2022-08-09T02:56:41.280Z,137.10
2022-08-09T02:59:26.272Z,140.10
2022-08-09T03:02:09.748Z,139.67
2022-08-09T03:04:41.848Z,138.60
2022-08-09T03:07:14.380Z,139.47
2022-08-09T03:09:43.807Z,138.10
2022-08-09T03:12:23.815Z,139.77
2022-08-09T03:14:52.332Z,142.17
2022-08-09T03:17:26.799Z,138.53
2022-08-09T03:20:00.546Z,136.87
2022-08-09T03:22:32.660Z,140.07
2022-08-09T03:25:13.598Z,142.40
2022-08-09T03:27:50.743Z,142.93
2022-08-09T03:30:30.207Z,84.63
2022-08-09T03:33:05.580Z,88.87
2022-08-09T03:36:11.384Z,89.60
2022-08-09T03:38:30.669Z,90.43
2022-08-09T03:40:58.999Z,90.77
2022-08-09T03:43:32.163Z,91.80
2022-08-09T03:46:04.855Z,86.27
2022-08-09T03:48:53.426Z,89.87
2022-08-09T03:51:55.924Z,89.83
2022-08-09T03:54:11.611Z,89.87
2022-08-09T03:56:40.954Z,86.57
2022-08-09T03:59:17.160Z,87.17
2022-08-09T04:01:50.493Z,89.40
2022-08-09T04:04:20.468Z,88.30
2022-08-09T04:06:52.940Z,89.97
2022-08-09T04:09:44.480Z,90.47
2022-08-09T04:12:37.631Z,86.10
2022-08-09T04:15:11.506Z,88.17
2022-08-09T04:17:47.431Z,91.47
2022-08-09T04:20:18.359Z,93.43
2022-08-09T04:22:47.340Z,93.03
2022-08-09T04:25:19.086Z,96.10
2022-08-09T04:27:49.059Z,95.23
2022-08-09T04:30:20.858Z,98.40
2022-08-09T04:32:52.131Z,98.53
2022-08-09T04:35:23.694Z,98.60
2022-08-09T04:37:52.021Z,96.60
2022-08-09T04:40:36.181Z,100.97
2022-08-09T04:43:05.873Z,96.57
2022-08-09T04:45:35.812Z,98.37
2022-08-09T04:48:21.213Z,99.13
2022-08-09T04:50:53.573Z,102.23
2022-08-09T04:53:22.658Z,100.00
2022-08-09T04:55:57.832Z,101.87
2022-08-09T04:58:27.651Z,101.17
2022-08-09T05:00:55.750Z,101.87
2022-08-09T05:03:39.941Z,100.47
2022-08-09T05:06:22.113Z,102.97
2022-08-09T05:09:00.262Z,104.67
2022-08-09T05:11:32.338Z,101.17
2022-08-09T05:14:05.846Z,103.93
2022-08-09T05:16:43.661Z,104.57
2022-08-09T05:19:25.907Z,102.57
2022-08-09T05:22:01.017Z,105.37
2022-08-09T05:24:29.078Z,105.50
2022-08-09T05:26:57.090Z,109.57
2022-08-09T05:29:31.388Z,108.87
2022-08-09T05:32:03.440Z,107.37
2022-08-09T05:34:33.965Z,114.37
2022-08-09T05:37:06.621Z,107.73
2022-08-09T05:39:42.648Z,112.17
2022-08-09T05:42:17.345Z,116.80
2022-08-09T05:44:51.655Z,111.53
2022-08-09T05:47:21.716Z,113.40
2022-08-09T05:50:35.068Z,113.17
2022-08-09T05:52:44.516Z,113.17
2022-08-09T05:55:24.023Z,114.07
2022-08-09T05:57:56.387Z,113.27
2022-08-09T06:00:26.547Z,111.97
2022-08-09T06:02:57.515Z,113.33
2022-08-09T06:05:31.336Z,115.90
2022-08-09T06:08:19.066Z,115.40
2022-08-09T06:10:48.156Z,112.90
2022-08-09T06:13:20.382Z,119.37
2022-08-09T06:15:51.263Z,113.40
2022-08-09T06:18:24.788Z,112.10
2022-08-09T06:20:57.931Z,117.60
2022-08-09T06:23:57.224Z,116.03
2022-08-09T06:26:20.276Z,116.83
2022-08-09T06:28:50.296Z,116.07
2022-08-09T06:31:31.349Z,114.60
2022-08-09T06:34:07.504Z,116.87
2022-08-09T06:36:35.741Z,120.27
2022-08-09T06:39:13.614Z,120.37
2022-08-09T06:42:11.165Z,123.10
2022-08-09T06:44:32.873Z,118.60
2022-08-09T06:47:01.433Z,115.47
2022-08-09T06:50:12.017Z,117.17
2022-08-09T06:52:19.702Z,114.93
2022-08-09T06:54:54.281Z,117.80
2022-08-09T06:57:25.751Z,117.10
2022-08-09T07:00:50.846Z,116.93
2022-08-09T07:03:00.039Z,120.13
2022-08-09T07:05:58.289Z,116.33
2022-08-09T07:08:16.985Z,119.07
2022-08-09T07:10:48.154Z,117.80
2022-08-09T07:13:28.378Z,118.00
2022-08-09T07:16:42.348Z,115.83
2022-08-09T07:18:47.452Z,116.23
2022-08-09T07:21:18.713Z,118.63
2022-08-09T07:23:58.319Z,116.03
2022-08-09T07:26:29.217Z,117.10
2022-08-09T07:29:08.839Z,115.37
2022-08-09T07:31:45.266Z,115.30
2022-08-09T07:34:20.726Z,113.67
2022-08-09T07:36:49.792Z,115.43
2022-08-09T07:39:20.355Z,114.57
2022-08-09T07:42:07.969Z,118.23
2022-08-09T07:44:51.889Z,116.73
2022-08-09T07:47:21.679Z,123.27
2022-08-09T07:49:52.306Z,114.37
2022-08-09T07:52:35.693Z,118.10
2022-08-09T07:55:10.013Z,120.00
2022-08-09T07:57:47.342Z,120.50
2022-08-09T08:00:20.552Z,123.90
2022-08-09T08:03:05.152Z,120.50
2022-08-09T08:05:39.163Z,118.00
2022-08-09T08:09:00.719Z,126.00
2022-08-09T08:12:24.809Z,125.13
2022-08-09T08:14:02.035Z,126.00
2022-08-09T08:16:31.664Z,124.87
2022-08-09T08:19:03.050Z,123.33
2022-08-09T08:21:32.433Z,123.73
2022-08-09T08:24:00.973Z,122.20
2022-08-09T08:26:54.516Z,122.57
2022-08-09T08:29:27.645Z,124.40
2022-08-09T08:32:03.153Z,126.03
2022-08-09T08:34:33.651Z,130.73
2022-08-09T08:37:02.996Z,130.10
2022-08-09T08:39:33.031Z,126.23
2022-08-09T08:42:09.514Z,128.77
2022-08-09T08:44:41.604Z,134.23
2022-08-09T08:47:12.851Z,128.37
2022-08-09T08:49:46.655Z,130.87
2022-08-09T08:55:07.141Z,140.17
2022-08-09T08:57:37.257Z,135.47
2022-08-09T09:00:20.440Z,137.43
2022-08-09T09:02:52.550Z,137.37
2022-08-09T09:05:57.661Z,140.00
2022-08-09T09:08:30.081Z,147.27
2022-08-09T09:11:02.853Z,141.97
2022-08-09T09:13:41.945Z,147.30
2022-08-09T09:16:30.420Z,146.80
2022-08-09T09:22:05.520Z,148.73
2022-08-09T09:24:38.814Z,147.97
2022-08-09T09:27:47.268Z,147.10
2022-08-09T09:30:12.068Z,153.77
2022-08-09T09:32:44.075Z,157.43
2022-08-09T09:35:16.005Z,152.23
2022-08-09T09:37:47.034Z,152.83
2022-08-09T09:40:17.799Z,155.27
2022-08-09T09:42:56.614Z,155.57
2022-08-09T09:45:25.814Z,154.53
2022-08-09T09:47:58.772Z,159.70
2022-08-09T09:50:42.176Z,157.87
2022-08-09T09:53:21.074Z,155.70
2022-08-09T09:55:57.804Z,162.47
2022-08-09T09:58:45.897Z,163.13
2022-08-09T10:01:37.451Z,163.37
2022-08-09T10:04:15.868Z,159.77
2022-08-09T10:06:47.130Z,161.53
2022-08-09T10:09:22.372Z,162.83
2022-08-09T10:12:12.252Z,162.43
2022-08-09T10:14:47.774Z,234.30
2022-08-09T10:17:39.263Z,266.80
2022-08-09T10:20:27.316Z,244.83
2022-08-09T10:23:17.043Z,262.50
2022-08-09T10:26:08.203Z,183.13
2022-08-09T10:28:36.053Z,185.37
2022-08-09T10:34:10.344Z,186.60
2022-08-09T10:36:44.003Z,193.40
2022-08-09T10:39:16.200Z,178.17
2022-08-09T10:41:48.343Z,222.53
2022-08-09T10:44:19.400Z,233.40
2022-08-09T10:48:12.637Z,234.00
2022-08-09T10:50:05.705Z,239.30
2022-08-09T10:52:51.925Z,255.13
2022-08-09T10:55:21.495Z,211.47
2022-08-09T10:57:51.660Z,231.77
2022-08-09T11:00:50.866Z,236.60
2022-08-09T11:03:50.159Z,236.83
2022-08-09T11:06:26.178Z,238.27
2022-08-09T11:08:59.743Z,274.10
2022-08-09T11:12:14.453Z,252.17
2022-08-09T11:14:48.941Z,257.90
2022-08-09T11:17:53.364Z,257.27
2022-08-09T11:20:41.588Z,261.20
2022-08-09T11:23:12.065Z,263.13
2022-08-09T11:25:49.342Z,251.63
2022-08-09T11:28:34.496Z,262.07
2022-08-09T11:31:49.377Z,250.57
2022-08-09T11:34:40.619Z,261.90
2022-08-09T11:37:09.532Z,266.13
2022-08-09T11:40:02.879Z,261.10
2022-08-09T11:42:46.960Z,265.73
2022-08-09T11:45:37.968Z,263.50
2022-08-09T11:48:26.135Z,261.67
2022-08-09T11:51:38.037Z,269.87
2022-08-09T11:54:14.447Z,266.50
2022-08-09T11:56:50.297Z,266.77
2022-08-09T11:59:30.628Z,260.07
2022-08-09T12:02:34.884Z,254.37
2022-08-09T12:04:58.095Z,258.43
2022-08-09T12:07:41.093Z,258.80
2022-08-09T12:10:14.395Z,255.33
2022-08-09T12:13:03.714Z,257.23
2022-08-09T12:15:52.278Z,263.97
2022-08-09T12:18:25.904Z,254.27
2022-08-09T12:20:59.165Z,258.13
2022-08-09T12:23:56.336Z,256.17
2022-08-09T12:26:19.826Z,256.50
2022-08-09T12:29:10.891Z,257.70
2022-08-09T12:31:58.418Z,257.77
2022-08-09T12:34:34.294Z,256.73
2022-08-09T12:37:09.736Z,255.33
2022-08-09T12:40:01.388Z,251.20
2022-08-09T12:42:30.620Z,249.90
2022-08-09T12:45:00.052Z,249.17
2022-08-09T12:47:32.877Z,254.67
2022-08-09T12:50:23.710Z,251.60
2022-08-09T12:53:09.221Z,249.60
2022-08-09T12:56:13.651Z,256.83
2022-08-09T12:58:30.171Z,253.10
2022-08-09T13:01:04.566Z,254.13
2022-08-09T13:03:53.330Z,252.47
2022-08-09T13:06:34.441Z,239.00
2022-08-09T13:09:09.853Z,238.60
2022-08-09T13:11:42.617Z,245.47
2022-08-09T13:14:41.400Z,244.83
2022-08-09T13:17:02.800Z,245.17
2022-08-09T13:20:07.575Z,246.33
2022-08-09T13:22:38.241Z,242.80
2022-08-09T13:25:14.249Z,232.67
2022-08-09T13:27:48.421Z,252.43
2022-08-09T13:32:12.632Z,241.17
2022-08-09T13:33:23.032Z,244.73
2022-08-09T13:36:39.268Z,245.63
2022-08-09T13:38:56.754Z,247.43
2022-08-09T13:41:58.091Z,237.53
2022-08-09T13:44:16.809Z,249.13
2022-08-09T13:47:26.819Z,249.43
2022-08-09T13:49:37.861Z,250.17
2022-08-09T13:52:28.162Z,249.23
2022-08-09T13:54:59.780Z,249.90
2022-08-09T13:57:39.663Z,248.83
2022-08-09T14:00:12.541Z,259.43
2022-08-09T14:03:16.558Z,247.87
2022-08-09T14:05:58.645Z,249.87
2022-08-09T14:08:21.508Z,249.57
2022-08-09T14:10:52.537Z,253.40
2022-08-09T14:14:15.405Z,256.03
2022-08-09T14:16:15.881Z,251.40
2022-08-09T14:18:49.345Z,253.37
2022-08-09T14:21:20.286Z,251.73
2022-08-09T14:23:53.825Z,255.57
2022-08-09T14:26:30.576Z,251.33
2022-08-09T14:29:02.861Z,254.43
2022-08-09T14:31:36.434Z,248.93
2022-08-09T14:34:31.761Z,253.37
2022-08-09T14:37:07.478Z,249.53
2022-08-09T14:39:40.109Z,253.43
2022-08-09T14:42:30.357Z,251.17
2022-08-09T14:45:01.736Z,258.20
2022-08-09T14:47:58.775Z,250.97
2022-08-09T14:50:32.776Z,131.03
2022-08-09T14:53:01.591Z,249.60
2022-08-09T14:55:32.600Z,251.93
2022-08-09T14:58:03.345Z,248.53
2022-08-09T15:00:33.557Z,247.40
2022-08-09T15:03:03.836Z,206.27
2022-08-09T15:05:33.138Z,238.83
2022-08-09T15:08:01.899Z,204.17
2022-08-09T15:10:32.655Z,231.63
2022-08-09T15:13:03.085Z,247.33
2022-08-09T15:15:34.149Z,179.93
2022-08-09T15:18:02.932Z,237.90
2022-08-09T15:21:57.973Z,201.97
2022-08-09T15:24:01.797Z,203.47
2022-08-09T15:26:18.524Z,202.37
2022-08-09T15:28:54.798Z,205.70
2022-08-09T15:31:40.413Z,199.00
2022-08-09T15:34:32.420Z,199.17
2022-08-09T15:37:01.007Z,196.00
2022-08-09T15:39:34.569Z,200.83
2022-08-09T15:42:21.790Z,200.90
2022-08-09T15:44:50.639Z,195.70
2022-08-09T15:47:22.602Z,199.77
2022-08-09T15:50:03.489Z,196.33
2022-08-09T15:52:35.038Z,196.83
2022-08-09T15:55:03.627Z,202.00
2022-08-09T15:57:44.520Z,39.30
2022-08-09T16:00:30.568Z,190.37
2022-08-09T16:03:02.125Z,193.00
2022-08-09T16:05:47.328Z,191.00
2022-08-09T16:08:29.610Z,256.03
2022-08-09T16:11:01.715Z,249.03
2022-08-09T16:14:02.902Z,252.27
2022-08-09T16:16:52.775Z,251.43
2022-08-09T16:19:24.086Z,253.23
2022-08-09T16:21:58.728Z,250.33
2022-08-09T16:24:33.108Z,253.37
2022-08-09T16:27:02.487Z,250.37
2022-08-09T16:29:36.666Z,262.57
2022-08-09T16:32:19.293Z,253.93
2022-08-09T16:34:58.402Z,252.17
2022-08-09T16:37:54.470Z,255.37
2022-08-09T16:40:29.450Z,255.93
2022-08-09T16:42:58.290Z,253.43
2022-08-09T16:45:28.429Z,254.20
2022-08-09T16:48:39.115Z,253.37
2022-08-09T16:50:49.873Z,253.63
2022-08-09T16:53:32.298Z,253.20
2022-08-09T16:56:10.150Z,264.73
2022-08-09T16:58:39.783Z,260.47
2022-08-09T17:01:12.249Z,256.27
2022-08-09T17:03:40.503Z,260.57
2022-08-09T17:06:31.813Z,267.13
2022-08-09T17:09:12.216Z,267.33
2022-08-09T17:11:48.183Z,263.77
2022-08-09T17:14:27.408Z,265.93
2022-08-09T17:17:02.292Z,266.90
2022-08-09T17:20:29.826Z,265.07
2022-08-09T17:22:53.221Z,259.10
2022-08-09T17:25:45.173Z,270.97
2022-08-09T17:28:23.583Z,268.07
2022-08-09T17:30:53.661Z,263.20
2022-08-09T17:33:37.955Z,270.80
2022-08-09T17:36:09.110Z,265.17
2022-08-09T17:38:57.844Z,268.57
2022-08-09T17:41:38.772Z,267.50
2022-08-09T17:44:42.549Z,276.83
2022-08-09T17:46:57.604Z,263.77
2022-08-09T17:49:28.008Z,263.10
2022-08-09T17:51:58.587Z,262.63
2022-08-09T17:54:28.250Z,263.93
2022-08-09T17:56:58.127Z,271.60
2022-08-09T17:59:38.032Z,264.73
2022-08-09T18:02:18.770Z,267.30
2022-08-09T18:04:51.239Z,264.30
2022-08-09T18:07:23.364Z,267.07
2022-08-09T18:10:04.330Z,272.67
2022-08-09T18:12:40.528Z,268.27
2022-08-09T18:15:27.546Z,269.70
2022-08-09T18:18:10.388Z,260.53
2022-08-09T18:21:18.856Z,255.53
2022-08-09T18:24:11.440Z,259.47
2022-08-09T18:26:32.214Z,258.70
2022-08-09T18:30:35.215Z,252.67
2022-08-09T18:31:55.383Z,250.30
2022-08-09T18:34:24.711Z,254.50
2022-08-09T18:36:54.406Z,251.60
2022-08-09T18:39:25.100Z,256.43
2022-08-09T18:41:53.994Z,254.77
2022-08-09T18:44:25.490Z,252.87
2022-08-09T18:47:07.365Z,266.27
2022-08-09T18:49:43.132Z,249.10
2022-08-09T18:52:14.045Z,255.60
2022-08-09T18:54:52.673Z,253.03
2022-08-09T18:57:22.973Z,246.33
2022-08-09T18:59:55.310Z,254.93
2022-08-09T19:02:30.518Z,253.13
2022-08-09T19:05:04.235Z,250.93
2022-08-09T19:08:03.696Z,249.20
2022-08-09T19:10:39.843Z,244.50
2022-08-09T19:13:19.146Z,245.97
2022-08-09T19:15:52.859Z,249.63
2022-08-09T19:18:33.488Z,249.67
2022-08-09T19:21:09.806Z,244.43
2022-08-09T19:24:35.581Z,251.27
2022-08-09T19:26:32.193Z,251.00
2022-08-09T19:29:03.211Z,251.27
2022-08-09T19:31:45.589Z,252.73
2022-08-09T19:34:21.650Z,252.23
2022-08-09T19:36:52.296Z,251.53
2022-08-09T19:39:42.992Z,245.50
2022-08-09T19:42:15.205Z,245.27
2022-08-09T19:44:50.802Z,251.30
2022-08-09T19:47:23.531Z,252.73
2022-08-09T19:50:06.830Z,248.10
2022-08-09T19:52:37.522Z,245.97
2022-08-09T19:55:19.731Z,257.80
2022-08-09T19:57:58.517Z,246.50
2022-08-09T20:00:26.692Z,248.53
2022-08-09T20:04:17.442Z,238.97
2022-08-09T20:05:46.924Z,246.60
2022-08-09T20:08:24.861Z,240.83
2022-08-09T20:11:04.419Z,244.57
2022-08-09T20:13:37.323Z,243.13
2022-08-09T20:16:35.774Z,246.33
2022-08-09T20:19:41.835Z,236.63
2022-08-09T20:21:56.695Z,237.67
2022-08-09T20:24:31.714Z,231.03
2022-08-09T20:27:07.875Z,236.77
2022-08-09T20:29:38.634Z,234.10
2022-08-09T20:32:28.648Z,238.63
2022-08-09T20:34:57.191Z,241.07
2022-08-09T20:37:25.605Z,233.23
2022-08-09T20:40:19.083Z,238.90
2022-08-09T20:43:12.532Z,229.80
2022-08-09T20:46:01.243Z,234.23
2022-08-09T20:48:34.763Z,238.20
2022-08-09T20:51:05.254Z,233.40
2022-08-09T20:53:36.911Z,228.37
2022-08-09T20:56:30.093Z,230.60
2022-08-09T20:59:03.999Z,238.33
2022-08-09T21:01:51.611Z,221.33
2022-08-09T21:05:55.221Z,229.73
2022-08-09T21:07:14.279Z,228.27
2022-08-09T21:09:55.262Z,237.37
2022-08-09T21:15:15.234Z,225.53
2022-08-09T21:18:22.559Z,227.63
2022-08-09T21:20:33.067Z,224.43
2022-08-09T21:23:04.339Z,227.83
2022-08-09T21:25:56.398Z,225.00
2022-08-09T21:28:34.418Z,235.07
2022-08-09T21:31:17.369Z,230.87
2022-08-09T21:33:54.482Z,223.93
2022-08-09T21:36:28.586Z,225.43
2022-08-09T21:38:59.215Z,222.17
2022-08-09T21:41:59.905Z,225.40
2022-08-09T21:44:32.782Z,226.90
2022-08-09T21:47:05.808Z,215.40
2022-08-09T21:49:40.379Z,223.87
2022-08-09T21:52:16.669Z,222.57
2022-08-09T21:54:49.708Z,225.63
2022-08-09T21:57:38.763Z,226.03
2022-08-09T22:00:25.776Z,221.30
2022-08-09T22:02:59.235Z,223.87
2022-08-09T22:05:36.866Z,222.67
2022-08-09T22:08:12.891Z,217.70
2022-08-09T22:11:50.196Z,226.23
2022-08-09T22:13:34.741Z,215.77
2022-08-09T22:16:07.531Z,211.10
2022-08-09T22:18:53.330Z,221.10
2022-08-09T22:21:45.296Z,221.13
2022-08-09T22:24:53.681Z,220.00
2022-08-09T22:27:31.840Z,213.53
2022-08-09T22:30:08.739Z,217.57
2022-08-09T22:32:49.321Z,211.67
2022-08-09T22:36:01.247Z,214.10
2022-08-09T22:38:09.470Z,209.20
2022-08-09T22:40:38.250Z,221.73
2022-08-09T22:43:08.675Z,218.43
2022-08-09T22:48:15.662Z,217.37
2022-08-09T22:48:36.447Z,214.67
2022-08-09T22:51:10.931Z,217.10
2022-08-09T22:54:02.803Z,216.93
2022-08-09T22:56:33.944Z,216.03
2022-08-09T22:59:05.528Z,213.97
2022-08-09T23:01:51.504Z,213.70
2022-08-09T23:04:19.785Z,211.63
2022-08-09T23:07:11.106Z,210.73
2022-08-09T23:09:42.191Z,209.97
2022-08-09T23:12:10.338Z,210.53
2022-08-09T23:14:42.345Z,210.83
2022-08-09T23:17:11.548Z,211.37
2022-08-09T23:20:06.790Z,214.37
2022-08-09T23:22:30.037Z,210.10
2022-08-09T23:24:59.822Z,205.67
2022-08-09T23:27:28.544Z,214.60
2022-08-09T23:29:56.698Z,211.47
2022-08-09T23:32:26.533Z,209.40
2022-08-09T23:34:56.521Z,206.57
2022-08-09T23:37:27.873Z,217.17
2022-08-09T23:39:57.461Z,213.13
2022-08-09T23:42:27.635Z,212.13
2022-08-09T23:44:55.823Z,212.40
2022-08-09T23:47:24.123Z,207.87
2022-08-09T23:49:52.310Z,208.33
2022-08-09T23:52:20.537Z,211.37
2022-08-09T23:54:52.735Z,209.33
2022-08-09T23:57:22.332Z,209.17
